Time;durP1;ratioP1;P1;durP2;ratioP2;P2;SDS_P1;SDS_P2;PMS_P1;PMS_P2;Temp;Humidity;BMP_temperature;BMP_pressure;BME280_temperature;BME280_humidity;BME280_pressure;Samples;Min_cycle;Max_cycle;Signal;HPM_P1;HPM_P2
2021/04/22 00:00:46;;;;;;;6.22;0.40;;;6.40;99.90;;;;;;5097491;28;20174;-54
2021/04/22 00:03:12;;;;;;;1.77;0.30;;;6.40;99.90;;;;;;5094133;28;20560;-52
2021/04/22 00:05:40;;;;;;;4.93;0.40;;;6.30;99.90;;;;;;5092148;28;20178;-52
2021/04/22 00:08:10;;;;;;;4.20;0.32;;;6.30;99.90;;;;;;5098794;28;20193;-50
2021/04/22 00:10:47;;;;;;;1.73;0.15;;;6.20;99.90;;;;;;5091241;28;20539;-49
2021/04/22 00:13:21;;;;;;;2.67;0.30;;;6.20;99.90;;;;;;5094826;28;20185;-51
2021/04/22 00:15:49;;;;;;;2.00;0.10;;;6.10;99.90;;;;;;5098415;28;20177;-50
2021/04/22 00:18:15;;;;;;;1.75;0.30;;;6.10;99.90;;;;;;5095397;28;20170;-51
2021/04/22 00:20:41;;;;;;;5.60;0.40;;;6.10;99.90;;;;;;5092850;28;20599;-49
2021/04/22 00:23:08;;;;;;;0.65;0.40;;;6.10;99.90;;;;;;5092599;28;20189;-50
2021/04/22 00:25:34;;;;;;;2.95;0.50;;;6.10;99.90;;;;;;5095182;28;20184;-51
2021/04/22 00:28:01;;;;;;;2.50;0.20;;;6.10;99.90;;;;;;5094817;28;20177;-51
2021/04/22 00:30:28;;;;;;;4.88;0.35;;;6.10;99.90;;;;;;5090743;28;20185;-52
2021/04/22 00:32:54;;;;;;;5.15;0.68;;;6.00;99.90;;;;;;5080882;28;20208;-53
2021/04/22 00:35:20;;;;;;;5.20;0.40;;;6.00;99.90;;;;;;5101932;28;20177;-52
2021/04/22 00:37:47;;;;;;;1.88;0.15;;;6.00;99.90;;;;;;5093067;28;20181;-53
2021/04/22 00:40:18;;;;;;;1.38;0.20;;;6.00;99.90;;;;;;5095679;28;20642;-50
2021/04/22 00:42:44;;;;;;;1.20;0.45;;;6.00;99.90;;;;;;5099546;28;20667;-51
2021/04/22 00:45:10;;;;;;;2.13;0.35;;;6.00;99.90;;;;;;5096842;28;20193;-50
2021/04/22 00:47:37;;;;;;;1.73;0.45;;;6.10;99.90;;;;;;5091320;28;20181;-52
2021/04/22 00:50:14;;;;;;;1.17;0.20;;;6.10;99.90;;;;;;5093275;28;20188;-50
2021/04/22 00:52:40;;;;;;;2.05;0.50;;;6.10;99.90;;;;;;5090385;28;20172;-49
2021/04/22 00:55:07;;;;;;;0.90;0.30;;;6.10;99.90;;;;;;5078661;28;20175;-50
2021/04/22 00:57:34;;;;;;;2.78;0.45;;;6.10;99.90;;;;;;5091381;28;20212;-49
2021/04/22 01:00:00;;;;;;;2.42;0.43;;;6.00;99.50;;;;;;5089306;28;20188;-52
2021/04/22 01:02:26;;;;;;;1.63;0.40;;;6.00;99.40;;;;;;5097632;28;20187;-52
2021/04/22 01:04:52;;;;;;;1.27;0.28;;;6.00;99.10;;;;;;5092220;28;20245;-50
2021/04/22 01:07:18;;;;;;;1.92;0.30;;;6.00;98.80;;;;;;5097979;28;20173;-50
2021/04/22 01:09:44;;;;;;;0.77;0.20;;;6.00;98.90;;;;;;5097367;28;20181;-50
2021/04/22 01:12:11;;;;;;;4.28;0.28;;;6.10;98.40;;;;;;5091250;28;20185;-52
2021/04/22 01:14:39;;;;;;;3.85;0.50;;;6.10;98.70;;;;;;5096421;28;20169;-50
2021/04/22 01:17:06;;;;;;;2.03;0.30;;;6.00;98.40;;;;;;5101511;28;20676;-49
2021/04/22 01:19:32;;;;;;;1.45;0.22;;;6.00;98.30;;;;;;5095592;28;20175;-50
2021/04/22 01:21:59;;;;;;;0.80;0.28;;;6.00;98.60;;;;;;5101987;28;20178;-50
2021/04/22 01:24:25;;;;;;;5.28;0.20;;;6.00;98.20;;;;;;5101733;28;20665;-51
2021/04/22 01:26:51;;;;;;;5.80;0.30;;;6.00;98.30;;;;;;5093126;28;20192;-50
2021/04/22 01:29:17;;;;;;;5.22;0.85;;;6.00;98.40;;;;;;5095510;28;20204;-50
2021/04/22 01:31:43;;;;;;;1.83;0.22;;;5.90;98.80;;;;;;5094858;28;20679;-49
2021/04/22 01:34:10;;;;;;;1.15;0.20;;;5.90;98.60;;;;;;5094386;28;20192;-50
2021/04/22 01:36:39;;;;;;;0.77;0.13;;;5.80;98.90;;;;;;5104599;28;20730;-51
2021/04/22 01:39:07;;;;;;;1.13;0.40;;;5.80;99.50;;;;;;5099385;28;20202;-48
2021/04/22 01:41:33;;;;;;;1.10;0.30;;;5.60;99.90;;;;;;5100808;28;20188;-50
2021/04/22 01:43:59;;;;;;;1.75;0.38;;;5.40;99.90;;;;;;5095868;28;20212;-49
2021/04/22 01:46:26;;;;;;;2.42;0.30;;;5.20;99.90;;;;;;5093318;28;20173;-50
2021/04/22 01:48:52;;;;;;;1.52;0.28;;;5.20;99.90;;;;;;5098702;28;20526;-50
2021/04/22 01:51:19;;;;;;;11.25;0.65;;;5.10;99.90;;;;;;5099281;28;20182;-49
2021/04/22 01:53:45;;;;;;;3.22;0.40;;;5.10;99.90;;;;;;5101389;28;20177;-50
2021/04/22 01:56:11;;;;;;;0.85;0.10;;;5.00;99.90;;;;;;5097115;28;20675;-50
2021/04/22 01:58:38;;;;;;;3.80;0.75;;;5.10;99.90;;;;;;5098910;28;20173;-49
2021/04/22 02:01:04;;;;;;;1.70;0.30;;;5.20;99.90;;;;;;5103044;28;20169;-49
2021/04/22 02:03:32;;;;;;;1.40;0.40;;;5.20;99.90;;;;;;5103775;28;20558;-51
2021/04/22 02:05:58;;;;;;;1.33;0.30;;;5.20;99.90;;;;;;5102790;28;20168;-50
2021/04/22 02:08:25;;;;;;;6.22;0.40;;;5.20;99.20;;;;;;5095829;28;20247;-51
2021/04/22 02:10:51;;;;;;;3.38;0.30;;;5.20;99.20;;;;;;5104504;28;20180;-49
2021/04/22 02:13:18;;;;;;;1.65;0.50;;;5.10;99.00;;;;;;5100958;28;20177;-49
2021/04/22 02:15:45;;;;;;;3.05;0.25;;;5.10;98.70;;;;;;5097696;28;20270;-52
2021/04/22 02:18:11;;;;;;;0.90;0.28;;;5.00;99.10;;;;;;5096604;28;20176;-50
2021/04/22 02:20:37;;;;;;;1.98;0.20;;;5.00;98.70;;;;;;5099614;28;20177;-50
2021/04/22 02:23:05;;;;;;;1.15;0.20;;;4.90;99.00;;;;;;5103269;28;20548;-50
2021/04/22 02:25:31;;;;;;;3.92;0.25;;;4.90;98.60;;;;;;5095973;28;20653;-50
2021/04/22 02:27:57;;;;;;;2.47;0.20;;;4.80;98.60;;;;;;5092829;28;20173;-50
2021/04/22 02:30:31;;;;;;;2.97;0.30;;;4.80;98.60;;;;;;5096311;28;20177;-49
2021/04/22 02:33:01;;;;;;;0.73;0.20;;;4.80;99.00;;;;;;5094402;28;20213;-50
2021/04/22 02:35:29;;;;;;;1.38;0.30;;;4.70;99.00;;;;;;5097869;28;20181;-50
2021/04/22 02:37:56;;;;;;;2.90;0.30;;;4.70;99.00;;;;;;5098217;28;20286;-49
2021/04/22 02:40:23;;;;;;;1.83;0.30;;;4.70;98.80;;;;;;5094571;28;20189;-50
2021/04/22 02:42:50;;;;;;;2.33;0.30;;;4.70;98.70;;;;;;5095190;28;20181;-49
2021/04/22 02:45:28;;;;;;;1.55;0.20;;;4.60;99.10;;;;;;5093065;28;20223;-49
2021/04/22 02:47:54;;;;;;;1.13;0.35;;;4.60;98.60;;;;;;5096167;28;20157;-49
2021/04/22 02:50:22;;;;;;;5.45;0.60;;;4.60;98.80;;;;;;5090886;28;20189;-50
2021/04/22 02:52:48;;;;;;;1.48;0.30;;;4.60;98.80;;;;;;5095744;28;20180;-49
2021/04/22 02:55:15;;;;;;;1.95;0.30;;;4.60;98.60;;;;;;5100212;28;20189;-49
2021/04/22 02:57:41;;;;;;;2.10;0.30;;;4.50;99.00;;;;;;5101392;28;20174;-51
2021/04/22 03:00:13;;;;;;;0.90;0.32;;;4.50;99.20;;;;;;5099381;28;20641;-49
2021/04/22 03:02:39;;;;;;;3.08;0.30;;;4.50;98.90;;;;;;5094622;28;20534;-52
2021/04/22 03:05:06;;;;;;;1.27;0.20;;;4.40;99.00;;;;;;5093734;28;20681;-49
2021/04/22 03:07:32;;;;;;;2.40;0.40;;;4.50;98.80;;;;;;5093771;28;20180;-50
2021/04/22 03:09:59;;;;;;;1.85;0.20;;;4.40;98.80;;;;;;5093653;28;20661;-50
2021/04/22 03:12:25;;;;;;;0.75;0.10;;;4.30;99.00;;;;;;5096716;28;20550;-53
2021/04/22 03:14:51;;;;;;;1.17;0.28;;;4.30;99.00;;;;;;5096525;28;20687;-51
2021/04/22 03:17:17;;;;;;;1.23;0.20;;;4.30;99.10;;;;;;5093404;28;20200;-54
2021/04/22 03:19:43;;;;;;;1.38;0.30;;;4.20;99.00;;;;;;5100922;28;20189;-51
2021/04/22 03:22:10;;;;;;;1.88;0.30;;;4.20;99.10;;;;;;5093408;28;20169;-50
2021/04/22 03:24:36;;;;;;;1.67;0.28;;;4.20;98.80;;;;;;5092497;28;20205;-50
2021/04/22 03:27:03;;;;;;;0.47;0.13;;;4.20;98.80;;;;;;5094271;28;20660;-51
2021/04/22 03:29:29;;;;;;;2.13;0.25;;;4.10;99.00;;;;;;5099138;27;20204;-53
2021/04/22 03:31:55;;;;;;;1.15;0.30;;;4.10;99.20;;;;;;5097268;28;20688;-51
2021/04/22 03:34:21;;;;;;;2.63;0.30;;;4.10;99.20;;;;;;5098122;28;20188;-49
2021/04/22 03:36:47;;;;;;;1.52;0.35;;;4.10;99.00;;;;;;5093386;28;20617;-51
2021/04/22 03:39:13;;;;;;;2.75;0.20;;;4.10;99.20;;;;;;5090572;28;20189;-50
2021/04/22 03:41:40;;;;;;;2.85;0.40;;;4.10;99.60;;;;;;5091303;28;20185;-53
2021/04/22 03:44:06;;;;;;;1.98;0.43;;;4.10;99.00;;;;;;5096911;28;20217;-51
2021/04/22 03:46:32;;;;;;;2.53;0.22;;;4.10;98.80;;;;;;5101023;28;20182;-53
2021/04/22 03:48:58;;;;;;;0.68;0.20;;;4.20;98.60;;;;;;5095162;28;20235;-53
2021/04/22 03:51:24;;;;;;;4.97;0.32;;;4.20;98.60;;;;;;5094185;28;20184;-53
2021/04/22 03:53:51;;;;;;;1.48;0.17;;;4.10;98.90;;;;;;5094893;28;20181;-50
2021/04/22 03:56:17;;;;;;;2.47;0.22;;;4.10;99.00;;;;;;5094780;28;20181;-51
2021/04/22 03:58:43;;;;;;;3.40;0.32;;;4.10;99.10;;;;;;5093346;28;20178;-57
2021/04/22 04:01:09;;;;;;;2.13;0.32;;;4.10;98.90;;;;;;5097080;28;20181;-49
2021/04/22 04:03:35;;;;;;;1.60;0.28;;;4.00;99.50;;;;;;5097538;28;20176;-51
2021/04/22 04:06:01;;;;;;;6.90;0.30;;;4.00;99.30;;;;;;5101134;28;20180;-51
2021/04/22 04:08:27;;;;;;;4.88;0.32;;;4.10;99.30;;;;;;5098298;28;20177;-52
2021/04/22 04:10:53;;;;;;;0.55;0.17;;;4.10;99.10;;;;;;5096007;28;20189;-53
2021/04/22 04:13:20;;;;;;;5.22;0.40;;;4.10;99.30;;;;;;5093524;28;20176;-51
2021/04/22 04:15:48;;;;;;;1.33;0.30;;;4.10;99.10;;;;;;5098586;28;20177;-54
2021/04/22 04:18:15;;;;;;;0.82;0.20;;;4.10;99.00;;;;;;5095897;28;20169;-55
2021/04/22 04:20:41;;;;;;;1.58;0.30;;;4.10;99.10;;;;;;5086880;28;20191;-53
2021/04/22 04:23:07;;;;;;;1.17;0.28;;;4.10;98.90;;;;;;5094047;28;20181;-49
2021/04/22 04:25:34;;;;;;;1.58;0.30;;;4.20;98.90;;;;;;5105362;28;20223;-51
2021/04/22 04:28:00;;;;;;;3.28;0.20;;;4.10;99.40;;;;;;5093493;28;20193;-53
2021/04/22 04:30:26;;;;;;;4.75;0.30;;;4.10;98.80;;;;;;5096127;28;20189;-53
2021/04/22 04:32:52;;;;;;;1.48;0.30;;;4.20;98.90;;;;;;5094854;28;20209;-52
2021/04/22 04:35:18;;;;;;;2.25;0.20;;;4.30;98.50;;;;;;5095424;28;20183;-50
2021/04/22 04:37:44;;;;;;;4.40;0.40;;;4.30;98.80;;;;;;5099648;28;20551;-49
2021/04/22 04:40:12;;;;;;;1.50;0.20;;;4.30;99.20;;;;;;5101820;28;20625;-55
2021/04/22 04:42:38;;;;;;;2.28;0.32;;;4.40;98.60;;;;;;5092783;28;20180;-52
2021/04/22 04:45:06;;;;;;;3.88;0.30;;;4.40;98.20;;;;;;5092222;28;20216;-54
2021/04/22 04:47:32;;;;;;;1.15;0.20;;;4.50;98.30;;;;;;5092377;28;20646;-52
2021/04/22 04:49:58;;;;;;;3.03;0.50;;;4.50;98.20;;;;;;5094342;28;20635;-53
2021/04/22 04:52:24;;;;;;;0.30;0.20;;;4.60;98.20;;;;;;5095218;28;20182;-53
2021/04/22 04:54:50;;;;;;;1.70;0.20;;;4.60;98.00;;;;;;5097187;28;20185;-51
2021/04/22 04:57:16;;;;;;;3.60;0.17;;;4.70;97.80;;;;;;5093702;28;20310;-53
2021/04/22 04:59:42;;;;;;;1.13;0.17;;;4.70;97.50;;;;;;5082367;28;20189;-51
2021/04/22 05:02:08;;;;;;;1.08;0.10;;;4.70;97.70;;;;;;5092378;28;20169;-53
2021/04/22 05:04:35;;;;;;;2.45;0.20;;;4.80;97.50;;;;;;5092238;28;20213;-53
2021/04/22 05:07:01;;;;;;;1.73;0.10;;;4.80;97.10;;;;;;5091412;28;20176;-52
2021/04/22 05:09:27;;;;;;;4.80;0.22;;;4.90;97.10;;;;;;5092172;28;20204;-50
2021/04/22 05:11:53;;;;;;;2.45;0.40;;;4.90;97.00;;;;;;5092265;28;20520;-50
2021/04/22 05:14:19;;;;;;;1.83;0.20;;;4.90;97.40;;;;;;5092230;28;20169;-50
2021/04/22 05:16:45;;;;;;;1.00;0.20;;;5.00;97.10;;;;;;5100416;28;20177;-51
2021/04/22 05:19:11;;;;;;;5.75;0.40;;;5.00;97.20;;;;;;5099058;28;20200;-51
2021/04/22 05:21:37;;;;;;;0.85;0.10;;;5.10;96.90;;;;;;5102110;28;20544;-52
2021/04/22 05:24:04;;;;;;;2.75;0.30;;;5.10;96.90;;;;;;5100926;28;20548;-52
2021/04/22 05:26:31;;;;;;;0.68;0.15;;;5.10;96.70;;;;;;5098543;28;20181;-50
2021/04/22 05:28:57;;;;;;;0.70;0.10;;;5.20;97.00;;;;;;5099702;28;20177;-51
2021/04/22 05:31:23;;;;;;;5.03;0.52;;;5.20;96.50;;;;;;5091886;28;20239;-50
2021/04/22 05:33:50;;;;;;;0.80;0.20;;;5.30;96.30;;;;;;5091977;28;20221;-50
2021/04/22 05:36:16;;;;;;;1.98;0.10;;;5.30;96.40;;;;;;5091847;28;20190;-49
2021/04/22 05:38:42;;;;;;;4.38;0.25;;;5.30;96.50;;;;;;5091668;28;20194;-51
2021/04/22 05:41:08;;;;;;;1.15;0.30;;;5.30;96.10;;;;;;5091057;28;20240;-50
2021/04/22 05:43:34;;;;;;;4.55;0.40;;;5.30;96.50;;;;;;5092162;28;20185;-54
2021/04/22 05:46:01;;;;;;;1.02;0.30;;;5.40;96.50;;;;;;5091620;28;20173;-51
2021/04/22 05:48:27;;;;;;;1.55;0.20;;;5.40;96.40;;;;;;5090936;28;20664;-50
2021/04/22 05:50:53;;;;;;;6.53;0.35;;;5.40;95.80;;;;;;5090903;28;20194;-50
2021/04/22 05:53:21;;;;;;;0.90;0.15;;;5.40;96.20;;;;;;5091654;28;20169;-50
2021/04/22 05:55:47;;;;;;;1.13;0.13;;;5.50;96.00;;;;;;5071581;28;20229;-50
2021/04/22 05:58:13;;;;;;;4.93;0.63;;;5.50;96.10;;;;;;5071198;28;20170;-49
2021/04/22 06:00:39;;;;;;;1.45;0.43;;;5.50;95.70;;;;;;5070661;28;20189;-49
2021/04/22 06:03:05;;;;;;;6.18;0.22;;;5.50;95.60;;;;;;5070806;28;20170;-49
2021/04/22 06:05:32;;;;;;;6.25;0.17;;;5.60;95.50;;;;;;5085855;28;20173;-49
2021/04/22 06:07:59;;;;;;;2.42;0.32;;;5.60;95.20;;;;;;5091507;28;20169;-49
2021/04/22 06:10:25;;;;;;;0.65;0.10;;;5.70;95.80;;;;;;5094901;28;20165;-51
2021/04/22 06:12:51;;;;;;;3.83;0.22;;;5.70;95.40;;;;;;5096903;28;20169;-50
2021/04/22 06:15:18;;;;;;;1.58;0.40;;;5.70;95.10;;;;;;5111049;28;20302;-50
2021/04/22 06:17:45;;;;;;;4.93;0.38;;;5.80;95.40;;;;;;5101488;28;20173;-49
2021/04/22 06:20:13;;;;;;;3.08;0.20;;;5.90;95.40;;;;;;5096258;28;20184;-53
2021/04/22 06:22:39;;;;;;;2.80;0.20;;;5.90;94.80;;;;;;5091959;28;20657;-50
2021/04/22 06:25:06;;;;;;;0.60;0.10;;;6.00;94.70;;;;;;5094167;28;20193;-50
2021/04/22 06:27:32;;;;;;;6.20;0.50;;;6.00;94.50;;;;;;5096385;28;20522;-50
2021/04/22 06:29:59;;;;;;;1.58;0.20;;;6.10;94.30;;;;;;5094322;28;20189;-49
2021/04/22 06:32:25;;;;;;;0.43;0.10;;;6.10;94.80;;;;;;5093336;28;20692;-49
2021/04/22 06:34:52;;;;;;;0.45;0.13;;;6.10;94.30;;;;;;5093828;28;20216;-50
2021/04/22 06:37:18;;;;;;;0.15;0.10;;;6.10;94.40;;;;;;5094455;28;20185;-50
2021/04/22 06:39:44;;;;;;;2.38;0.28;;;6.10;94.00;;;;;;5093790;28;20180;-50
2021/04/22 06:42:10;;;;;;;2.58;0.30;;;6.10;93.90;;;;;;5094234;28;20207;-49
2021/04/22 06:44:36;;;;;;;2.78;0.20;;;6.20;94.50;;;;;;5093514;28;20208;-50
2021/04/22 06:47:04;;;;;;;9.95;0.50;;;6.30;94.20;;;;;;5094026;28;20185;-49
2021/04/22 06:49:30;;;;;;;1.48;0.30;;;6.40;94.20;;;;;;5094098;28;20189;-49
2021/04/22 06:51:56;;;;;;;1.20;0.13;;;6.30;93.20;;;;;;5094051;28;20189;-50
2021/04/22 06:54:22;;;;;;;1.40;0.20;;;6.40;92.90;;;;;;5093019;28;20675;-49
2021/04/22 06:56:49;;;;;;;0.98;0.28;;;6.40;93.00;;;;;;5093969;28;20189;-50
2021/04/22 06:59:15;;;;;;;0.63;0.17;;;6.40;92.40;;;;;;5093589;28;20173;-51
2021/04/22 07:01:41;;;;;;;1.27;0.05;;;6.40;92.50;;;;;;5099381;28;20200;-50
2021/04/22 07:04:07;;;;;;;1.45;0.30;;;6.40;91.30;;;;;;5101914;27;20529;-49
2021/04/22 07:06:33;;;;;;;2.17;0.30;;;6.50;91.70;;;;;;5101096;28;20169;-51
2021/04/22 07:09:00;;;;;;;1.42;0.10;;;6.60;91.90;;;;;;5102999;28;20177;-50
2021/04/22 07:11:26;;;;;;;1.33;0.20;;;6.70;91.30;;;;;;5104511;28;20181;-50
2021/04/22 07:13:52;;;;;;;0.77;0.15;;;6.70;91.70;;;;;;5096936;28;20181;-51
2021/04/22 07:16:18;;;;;;;5.22;0.30;;;6.80;91.90;;;;;;5101305;28;20201;-49
2021/04/22 07:18:44;;;;;;;0.28;0.10;;;6.80;91.10;;;;;;5097537;28;20184;-52
2021/04/22 07:21:10;;;;;;;5.43;0.38;;;6.80;90.70;;;;;;5101426;28;20178;-49
2021/04/22 07:23:37;;;;;;;20.80;0.55;;;6.80;90.20;;;;;;5103677;28;20181;-49
2021/04/22 07:26:03;;;;;;;0.68;0.60;;;6.70;90.00;;;;;;5098065;28;20176;-51
2021/04/22 07:28:30;;;;;;;0.90;0.30;;;6.90;90.60;;;;;;5103908;28;20181;-49
2021/04/22 07:30:56;;;;;;;0.88;0.25;;;7.20;90.70;;;;;;5099223;28;20521;-55
2021/04/22 07:33:23;;;;;;;0.32;0.10;;;7.50;91.10;;;;;;5102451;28;20548;-51
2021/04/22 07:35:49;;;;;;;1.70;0.47;;;7.70;91.30;;;;;;5099219;28;20212;-52
2021/04/22 07:38:15;;;;;;;0.30;0.20;;;7.50;88.70;;;;;;5102255;28;20172;-51
2021/04/22 07:40:42;;;;;;;1.45;0.13;;;7.50;89.10;;;;;;5103571;28;20560;-50
2021/04/22 07:43:09;;;;;;;2.70;0.17;;;7.50;88.50;;;;;;5101958;28;20204;-51
2021/04/22 07:45:37;;;;;;;10.05;0.20;;;7.50;86.00;;;;;;5108468;28;20188;-51
2021/04/22 07:48:04;;;;;;;0.20;0.10;;;7.50;85.70;;;;;;5107156;28;20197;-51
2021/04/22 07:50:30;;;;;;;0.47;0.10;;;7.50;85.20;;;;;;5093453;28;20510;-50
2021/04/22 07:52:58;;;;;;;23.38;1.10;;;7.60;85.50;;;;;;5093379;28;20200;-52
2021/04/22 07:55:28;;;;;;;2.05;0.20;;;7.50;84.30;;;;;;5093494;28;20216;-51
2021/04/22 07:57:55;;;;;;;8.30;0.30;;;7.70;83.10;;;;;;5092336;28;20181;-49
2021/04/22 08:00:21;;;;;;;0.28;0.17;;;7.90;82.40;;;;;;5098135;28;20549;-50
2021/04/22 08:02:48;;;;;;;3.40;0.45;;;8.10;79.40;;;;;;5092843;28;20189;-52
2021/04/22 08:05:14;;;;;;;4.88;0.68;;;8.50;81.20;;;;;;5090843;28;20172;-54
2021/04/22 08:07:41;;;;;;;0.30;0.10;;;8.80;79.50;;;;;;5092819;28;20629;-53
2021/04/22 08:10:11;;;;;;;3.08;0.20;;;9.20;77.40;;;;;;5091816;28;20181;-49
2021/04/22 08:12:37;;;;;;;2.80;0.40;;;9.30;78.60;;;;;;5071328;28;20173;-52
2021/04/22 08:15:05;;;;;;;0.80;0.20;;;9.60;77.10;;;;;;5072650;28;20201;-54
2021/04/22 08:17:32;;;;;;;0.68;0.20;;;9.80;75.30;;;;;;5072713;28;20657;-52
2021/04/22 08:19:59;;;;;;;0.50;0.20;;;9.50;72.50;;;;;;5079504;28;20173;-56
2021/04/22 08:22:25;;;;;;;2.38;0.30;;;10.10;72.40;;;;;;5095170;28;20193;-52
2021/04/22 08:24:52;;;;;;;3.15;0.30;;;10.30;72.80;;;;;;5092128;28;20182;-50
2021/04/22 08:27:18;;;;;;;0.45;0.20;;;9.80;71.40;;;;;;5092137;28;20181;-53
2021/04/22 08:29:44;;;;;;;3.13;0.20;;;9.50;69.70;;;;;;5091464;28;20185;-54
2021/04/22 08:32:10;;;;;;;3.58;0.20;;;9.70;70.40;;;;;;5090404;28;20209;-51
2021/04/22 08:34:36;;;;;;;0.93;0.30;;;9.70;71.10;;;;;;5099854;28;20176;-52
2021/04/22 08:37:02;;;;;;;1.75;0.30;;;10.10;69.80;;;;;;5091634;28;20189;-51
2021/04/22 08:39:28;;;;;;;14.02;0.40;;;10.60;67.40;;;;;;5093421;28;20169;-51
2021/04/22 08:41:55;;;;;;;3.78;0.30;;;10.80;69.10;;;;;;5091173;28;20181;-50
2021/04/22 08:44:21;;;;;;;3.08;0.30;;;10.80;65.30;;;;;;5091941;28;20193;-53
2021/04/22 08:46:47;;;;;;;3.08;0.38;;;10.60;65.50;;;;;;5092131;28;20181;-51
2021/04/22 08:49:14;;;;;;;1.55;0.22;;;10.50;65.70;;;;;;5092300;28;20236;-53
2021/04/22 08:51:40;;;;;;;2.20;0.20;;;10.30;63.90;;;;;;5091708;28;20196;-51
2021/04/22 08:54:06;;;;;;;8.73;0.55;;;10.40;65.80;;;;;;5091016;28;20165;-52
2021/04/22 08:56:37;;;;;;;10.30;0.30;;;11.30;67.20;;;;;;5092499;28;20683;-54
2021/04/22 08:59:04;;;;;;;3.00;0.40;;;12.00;62.60;;;;;;5092449;28;20227;-54
2021/04/22 09:01:32;;;;;;;4.85;0.55;;;12.80;60.40;;;;;;5090423;28;20200;-52
2021/04/22 09:04:00;;;;;;;1.52;0.40;;;12.00;58.70;;;;;;5092090;28;20161;-52
2021/04/22 09:06:29;;;;;;;5.35;0.40;;;11.30;58.30;;;;;;5090611;28;20181;-50
2021/04/22 09:08:55;;;;;;;3.45;0.30;;;11.30;58.20;;;;;;5092262;28;20180;-51
2021/04/22 09:11:24;;;;;;;5.28;0.55;;;11.20;58.30;;;;;;5092138;28;20177;-52
2021/04/22 09:13:51;;;;;;;2.47;0.40;;;10.80;57.60;;;;;;5091644;28;20176;-52
2021/04/22 09:16:22;;;;;;;5.03;0.45;;;11.00;57.70;;;;;;5091864;28;20578;-53
2021/04/22 09:19:10;;;;;;;1.55;0.38;;;10.80;57.50;;;;;;5091443;28;20169;-50
2021/04/22 09:21:40;;;;;;;2.35;0.30;;;11.40;57.70;;;;;;5091828;28;20181;-51
2021/04/22 09:24:14;;;;;;;2.78;0.47;;;11.40;57.10;;;;;;5090067;28;20173;-53
2021/04/22 09:26:41;;;;;;;0.85;0.38;;;11.20;55.10;;;;;;5090575;28;20177;-50
2021/04/22 09:29:09;;;;;;;0.50;0.20;;;11.20;56.20;;;;;;5090448;28;20176;-51
2021/04/22 09:31:35;;;;;;;3.17;0.30;;;11.30;54.70;;;;;;5090520;28;20688;-50
2021/04/22 09:34:15;;;;;;;2.05;0.25;;;11.20;53.80;;;;;;5089474;28;20181;-53
2021/04/22 09:36:44;;;;;;;2.78;0.28;;;11.50;53.90;;;;;;5089727;28;20225;-52
2021/04/22 09:39:10;;;;;;;1.42;0.25;;;11.90;54.10;;;;;;5090386;28;20547;-52
2021/04/22 09:41:37;;;;;;;1.70;0.30;;;12.50;53.40;;;;;;5090655;28;20592;-50
2021/04/22 09:44:08;;;;;;;4.50;0.45;;;12.30;51.50;;;;;;5092296;28;20560;-50
2021/04/22 09:46:35;;;;;;;4.07;0.70;;;11.60;52.00;;;;;;5093214;28;20195;-50
2021/04/22 09:49:11;;;;;;;1.20;0.80;;;11.30;53.30;;;;;;5093496;28;20169;-51
2021/04/22 09:51:38;;;;;;;1.52;0.38;;;12.60;53.80;;;;;;5092473;28;20208;-52
2021/04/22 09:54:06;;;;;;;1.90;0.30;;;13.70;51.90;;;;;;5095597;28;20645;-54
2021/04/22 09:56:55;;;;;;;1.77;0.40;;;12.80;51.40;;;;;;5093696;28;20197;-50
2021/04/22 09:59:23;;;;;;;4.10;0.40;;;13.00;51.30;;;;;;5095513;28;20169;-53
2021/04/22 10:02:09;;;;;;;0.47;0.28;;;13.00;50.10;;;;;;5096198;28;20168;-49
2021/04/22 10:04:43;;;;;;;1.98;0.40;;;12.80;48.90;;;;;;5095380;28;20188;-51
2021/04/22 10:07:22;;;;;;;10.63;0.55;;;12.90;49.60;;;;;;5094566;28;20153;-51
2021/04/22 10:09:56;;;;;;;0.50;0.32;;;13.70;50.00;;;;;;5095184;28;20165;-52
2021/04/22 10:12:30;;;;;;;1.23;0.50;;;13.20;47.90;;;;;;5094017;28;20192;-52
2021/04/22 10:14:56;;;;;;;1.08;0.43;;;12.60;47.70;;;;;;5095455;28;20169;-52
2021/04/22 10:17:25;;;;;;;3.25;0.30;;;12.50;49.00;;;;;;5094533;28;20193;-52
2021/04/22 10:19:59;;;;;;;4.57;0.40;;;13.20;48.50;;;;;;5095085;28;20169;-52
2021/04/22 10:22:39;;;;;;;2.50;0.30;;;13.10;49.10;;;;;;5094917;28;20864;-53
2021/04/22 10:25:09;;;;;;;0.47;0.20;;;13.40;49.50;;;;;;5095037;28;20172;-51
2021/04/22 10:27:35;;;;;;;3.20;0.50;;;13.00;50.90;;;;;;5094225;28;20684;-51
2021/04/22 10:30:02;;;;;;;7.47;0.55;;;13.90;51.70;;;;;;5095352;28;20177;-50
2021/04/22 10:32:28;;;;;;;13.82;0.80;;;13.50;53.00;;;;;;5094645;28;20568;-53
2021/04/22 10:34:55;;;;;;;1.77;0.50;;;13.60;51.90;;;;;;5094753;28;20193;-51
2021/04/22 10:37:22;;;;;;;6.07;0.52;;;12.40;52.30;;;;;;5094380;28;20177;-50
2021/04/22 10:39:48;;;;;;;9.05;0.60;;;12.80;53.70;;;;;;5094250;28;20177;-50
2021/04/22 10:42:16;;;;;;;5.63;0.85;;;13.60;55.60;;;;;;5094740;28;20173;-51
2021/04/22 10:44:42;;;;;;;7.18;0.82;;;13.80;57.90;;;;;;5094719;28;20189;-51
2021/04/22 10:47:08;;;;;;;3.72;0.90;;;14.20;55.50;;;;;;5094402;28;20184;-51
2021/04/22 10:49:34;;;;;;;18.75;1.45;;;13.60;57.10;;;;;;5094127;28;20551;-51
2021/04/22 10:52:01;;;;;;;4.00;0.90;;;12.20;59.20;;;;;;5093428;28;20209;-50
2021/04/22 10:54:28;;;;;;;15.75;0.90;;;11.30;61.10;;;;;;5092303;28;20215;-52
2021/04/22 10:57:05;;;;;;;2.88;0.50;;;11.80;62.50;;;;;;5094218;28;20193;-52
2021/04/22 10:59:33;;;;;;;12.02;1.10;;;12.40;60.50;;;;;;5093245;28;20149;-51
2021/04/22 11:01:59;;;;;;;4.55;1.05;;;12.40;61.80;;;;;;5093469;28;20190;-51
2021/04/22 11:04:34;;;;;;;6.30;0.82;;;12.90;62.30;;;;;;5093521;28;20192;-51
2021/04/22 11:07:00;;;;;;;12.43;0.90;;;13.80;59.80;;;;;;5092113;28;20161;-52
2021/04/22 11:09:34;;;;;;;9.10;0.85;;;14.00;57.70;;;;;;5092044;28;20196;-54
2021/04/22 11:12:01;;;;;;;4.32;0.80;;;12.50;57.40;;;;;;5091435;28;20174;-50
2021/04/22 11:14:41;;;;;;;5.32;0.80;;;11.90;60.20;;;;;;5093277;28;20192;-52
2021/04/22 11:17:08;;;;;;;6.13;0.80;;;11.60;58.70;;;;;;5092221;28;20193;-54
2021/04/22 11:19:42;;;;;;;17.88;1.38;;;11.80;59.00;;;;;;5092548;28;20196;-54
2021/04/22 11:22:19;;;;;;;20.45;1.00;;;11.60;58.90;;;;;;5092536;28;20172;-52
2021/04/22 11:25:01;;;;;;;3.55;0.80;;;12.10;59.30;;;;;;5084124;28;20172;-52
2021/04/22 11:27:30;;;;;;;1.85;0.70;;;12.90;57.60;;;;;;5093088;28;20180;-53
2021/04/22 11:30:02;;;;;;;2.58;0.80;;;13.70;54.70;;;;;;5091985;28;20173;-52
2021/04/22 11:32:35;;;;;;;13.32;1.00;;;13.20;56.50;;;;;;5091861;28;20232;-51
2021/04/22 11:35:14;;;;;;;3.97;0.77;;;13.70;56.10;;;;;;5092975;28;20185;-54
2021/04/22 11:37:45;;;;;;;15.50;1.25;;;12.90;54.90;;;;;;5093507;28;20169;-55
2021/04/22 11:40:29;;;;;;;10.73;0.90;;;12.80;56.80;;;;;;5092539;28;20181;-54
2021/04/22 11:42:56;;;;;;;15.73;1.27;;;12.20;55.20;;;;;;5084815;28;20203;-51
2021/04/22 11:45:27;;;;;;;15.05;1.35;;;12.00;57.40;;;;;;5092778;28;20541;-53
2021/04/22 11:47:57;;;;;;;26.77;1.58;;;11.70;56.10;;;;;;5093001;28;20177;-55
2021/04/22 11:50:40;;;;;;;8.52;0.95;;;11.40;56.80;;;;;;5090419;28;20188;-51
2021/04/22 11:53:06;;;;;;;4.80;0.80;;;11.30;58.70;;;;;;5092196;28;20637;-54
2021/04/22 11:55:38;;;;;;;6.50;0.85;;;12.00;56.80;;;;;;5091993;28;20216;-53
2021/04/22 11:58:11;;;;;;;17.58;0.95;;;11.70;56.30;;;;;;5091893;28;20177;-54
2021/04/22 12:00:45;;;;;;;12.40;0.70;;;11.70;56.20;;;;;;5090284;28;20186;-54
2021/04/22 12:03:16;;;;;;;4.80;1.00;;;11.40;57.60;;;;;;5091221;28;20173;-53
2021/04/22 12:05:42;;;;;;;5.88;0.80;;;11.60;55.80;;;;;;5089790;28;20168;-52
2021/04/22 12:08:10;;;;;;;16.48;1.13;;;12.00;57.70;;;;;;5082819;28;20529;-53
2021/04/22 12:10:38;;;;;;;3.05;0.60;;;11.70;54.80;;;;;;5092223;28;20629;-54
2021/04/22 12:13:05;;;;;;;1.90;0.60;;;11.10;57.20;;;;;;5091762;28;20641;-53
2021/04/22 12:15:33;;;;;;;2.90;0.75;;;12.10;57.30;;;;;;5092695;28;20213;-53
2021/04/22 12:17:59;;;;;;;4.93;0.88;;;12.00;55.00;;;;;;5092006;28;20616;-54
2021/04/22 12:20:25;;;;;;;3.63;0.70;;;11.80;55.10;;;;;;5093173;28;20554;-53
2021/04/22 12:22:51;;;;;;;4.15;0.77;;;11.60;55.20;;;;;;5091230;28;20182;-53
2021/04/22 12:25:19;;;;;;;5.97;0.73;;;11.20;55.10;;;;;;5087767;28;20189;-53
2021/04/22 12:27:57;;;;;;;7.07;0.80;;;10.60;55.50;;;;;;5092273;28;20166;-53
2021/04/22 12:30:40;;;;;;;2.58;1.23;;;10.90;56.00;;;;;;5091901;28;20544;-52
2021/04/22 12:33:07;;;;;;;2.55;0.70;;;11.30;55.60;;;;;;5091686;28;20673;-52
2021/04/22 12:35:34;;;;;;;1.23;0.65;;;11.90;55.00;;;;;;5094076;28;20201;-54
2021/04/22 12:38:22;;;;;;;29.52;1.55;;;11.80;54.00;;;;;;5092618;28;20177;-54
2021/04/22 12:41:03;;;;;;;25.05;1.73;;;12.40;55.00;;;;;;5092645;28;20208;-52
2021/04/22 12:43:30;;;;;;;3.63;0.60;;;12.40;53.80;;;;;;5092370;28;20189;-52
2021/04/22 12:46:03;;;;;;;6.30;0.80;;;11.30;54.90;;;;;;5091312;28;20615;-52
2021/04/22 12:48:29;;;;;;;7.65;0.73;;;11.30;54.60;;;;;;5092371;28;20617;-53
2021/04/22 12:50:57;;;;;;;2.20;0.80;;;11.90;53.50;;;;;;5092631;28;20636;-53
2021/04/22 12:53:24;;;;;;;6.57;0.73;;;12.30;54.80;;;;;;5097171;28;20180;-53
2021/04/22 12:55:53;;;;;;;5.00;0.63;;;11.90;52.80;;;;;;5098094;28;20209;-51